Time;durP1;ratioP1;P1;durP2;ratioP2;P2;SDS_P1;SDS_P2;PMS_P1;PMS_P2;Temp;Humidity;BMP_temperature;BMP_pressure;BME280_temperature;BME280_humidity;BME280_pressure;Samples;Min_cycle;Max_cycle;Signal;HPM_P1;HPM_P2
2021/08/24 00:01:36;;;;;;;1.20;1.10;;;23.00;57.90;;;;;;5081920;28;20039;-36
2021/08/24 00:04:02;;;;;;;1.20;1.10;;;23.00;58.00;;;;;;5081993;28;20029;-36
2021/08/24 00:06:28;;;;;;;1.10;1.00;;;23.00;57.80;;;;;;5063863;28;20035;-37
2021/08/24 00:08:55;;;;;;;1.23;1.13;;;23.00;58.20;;;;;;5074302;28;20481;-37
2021/08/24 00:11:21;;;;;;;1.10;1.00;;;23.00;58.50;;;;;;5080932;28;20103;-37
2021/08/24 00:13:47;;;;;;;1.23;1.10;;;23.00;58.20;;;;;;5080206;28;20039;-36
2021/08/24 00:16:17;;;;;;;1.20;1.10;;;22.90;58.00;;;;;;5086000;28;20028;-37
2021/08/24 00:18:43;;;;;;;1.10;1.00;;;22.90;58.20;;;;;;5085651;28;20145;-37
2021/08/24 00:21:10;;;;;;;1.45;1.10;;;22.90;58.10;;;;;;5085122;28;20119;-36
2021/08/24 00:23:36;;;;;;;1.20;1.10;;;22.80;58.30;;;;;;5067810;28;20028;-36
2021/08/24 00:26:02;;;;;;;1.25;1.02;;;22.80;58.50;;;;;;5085814;28;20277;-36
2021/08/24 00:28:28;;;;;;;1.10;1.00;;;22.80;58.30;;;;;;5085546;28;20040;-37
2021/08/24 00:30:55;;;;;;;1.30;1.20;;;22.80;58.60;;;;;;5067117;28;20063;-36
2021/08/24 00:33:21;;;;;;;1.30;1.20;;;22.80;58.30;;;;;;5065569;28;20036;-36
2021/08/24 00:35:47;;;;;;;1.90;1.27;;;22.80;58.50;;;;;;5076381;28;20123;-37
2021/08/24 00:38:15;;;;;;;1.20;1.10;;;22.70;58.30;;;;;;5084530;28;20028;-36
2021/08/24 00:40:42;;;;;;;1.08;0.98;;;22.70;58.20;;;;;;5066686;28;20036;-36
2021/08/24 00:43:11;;;;;;;1.53;1.10;;;22.70;58.10;;;;;;5070980;28;20053;-36
2021/08/24 00:45:40;;;;;;;1.10;1.00;;;22.70;58.10;;;;;;5070174;28;20276;-36
2021/08/24 00:48:06;;;;;;;1.20;1.10;;;22.70;57.90;;;;;;5066578;28;20035;-37
2021/08/24 00:50:35;;;;;;;1.20;1.10;;;22.70;58.20;;;;;;5085005;28;20496;-36
2021/08/24 00:53:06;;;;;;;1.70;1.00;;;22.60;58.30;;;;;;5067194;28;20081;-36
2021/08/24 00:55:32;;;;;;;1.60;1.10;;;22.60;58.30;;;;;;5067119;28;20040;-37
2021/08/24 00:58:00;;;;;;;1.20;1.10;;;22.60;58.20;;;;;;5050153;28;20031;-36
2021/08/24 01:00:28;;;;;;;1.30;1.20;;;22.60;58.50;;;;;;5049603;28;20028;-36
2021/08/24 01:02:57;;;;;;;1.00;1.00;;;22.60;58.60;;;;;;5080915;28;20020;-37
2021/08/24 01:05:24;;;;;;;1.10;1.00;;;22.50;58.70;;;;;;5066575;28;20029;-36
2021/08/24 01:07:58;;;;;;;1.20;1.10;;;22.50;58.60;;;;;;5048865;28;20088;-37
2021/08/24 01:10:32;;;;;;;1.30;1.20;;;22.50;58.60;;;;;;5065575;28;20094;-38
2021/08/24 01:13:34;;;;;;;1.20;1.10;;;22.50;58.50;;;;;;5080466;28;20044;-36
2021/08/24 01:16:13;;;;;;;1.13;1.02;;;22.40;58.60;;;;;;5051879;28;20041;-36
2021/08/24 01:19:07;;;;;;;1.27;1.17;;;22.40;58.30;;;;;;5065272;28;20037;-37
2021/08/24 01:21:54;;;;;;;1.15;1.00;;;22.40;58.30;;;;;;5069038;28;20032;-36
2021/08/24 01:24:36;;;;;;;1.10;1.00;;;22.40;58.50;;;;;;5083838;28;20039;-36
2021/08/24 01:27:13;;;;;;;1.35;1.20;;;22.30;58.70;;;;;;5084573;28;20640;-36
2021/08/24 01:30:10;;;;;;;1.27;1.17;;;22.30;58.80;;;;;;5046032;28;20106;-37
2021/08/24 01:32:54;;;;;;;1.52;1.27;;;22.30;59.20;;;;;;5064402;28;20036;-36
2021/08/24 01:35:43;;;;;;;1.20;1.10;;;22.30;59.20;;;;;;5075259;28;20044;-37
2021/08/24 01:38:16;;;;;;;1.33;1.10;;;22.20;58.70;;;;;;5084625;28;20033;-36
2021/08/24 01:41:03;;;;;;;1.30;1.20;;;22.20;58.90;;;;;;5065934;28;20029;-36
2021/08/24 01:43:39;;;;;;;1.30;1.20;;;22.20;59.10;;;;;;5061724;28;20025;-36
2021/08/24 01:46:13;;;;;;;1.40;1.30;;;22.20;59.70;;;;;;5045257;28;20040;-36
2021/08/24 01:48:39;;;;;;;1.60;1.20;;;22.20;61.40;;;;;;5070944;28;20028;-36
2021/08/24 01:51:15;;;;;;;1.23;1.10;;;22.20;61.20;;;;;;5065217;28;20036;-36
2021/08/24 01:54:02;;;;;;;1.42;1.17;;;22.20;60.70;;;;;;5048723;28;20108;-36
2021/08/24 01:56:35;;;;;;;1.13;1.02;;;22.20;60.90;;;;;;5065687;28;20041;-37
2021/08/24 01:59:25;;;;;;;1.25;1.15;;;22.20;60.50;;;;;;5049565;28;20107;-36
2021/08/24 02:02:00;;;;;;;1.15;1.05;;;22.30;61.00;;;;;;5047718;28;20076;-37
2021/08/24 02:04:50;;;;;;;1.20;1.10;;;22.30;60.90;;;;;;5029302;28;20021;-36
2021/08/24 02:07:16;;;;;;;1.30;1.20;;;22.30;61.50;;;;;;5070786;28;20115;-37
2021/08/24 02:09:47;;;;;;;1.40;1.30;;;22.30;61.50;;;;;;5054317;28;20029;-36
2021/08/24 02:12:14;;;;;;;1.58;1.20;;;22.40;61.90;;;;;;5065325;28;20033;-37
2021/08/24 02:14:41;;;;;;;1.38;1.10;;;22.40;62.00;;;;;;5065082;28;20590;-36
2021/08/24 02:17:08;;;;;;;1.52;1.42;;;22.40;62.30;;;;;;5036563;28;20143;-37
2021/08/24 02:19:44;;;;;;;1.60;1.50;;;22.50;62.50;;;;;;5064295;28;20024;-37
2021/08/24 02:22:28;;;;;;;1.52;1.33;;;22.40;62.50;;;;;;5065892;28;20059;-37
2021/08/24 02:24:59;;;;;;;1.50;1.23;;;22.50;62.70;;;;;;5082076;28;20053;-37
2021/08/24 02:27:27;;;;;;;1.48;1.38;;;22.50;62.30;;;;;;5083401;28;20050;-37
2021/08/24 02:29:53;;;;;;;1.27;1.17;;;22.50;62.50;;;;;;5048580;28;20021;-37
2021/08/24 02:32:25;;;;;;;1.67;1.58;;;22.50;62.70;;;;;;5083068;28;20052;-36
2021/08/24 02:34:57;;;;;;;1.50;1.38;;;22.50;62.60;;;;;;5048607;28;20137;-36
2021/08/24 02:37:35;;;;;;;1.30;1.10;;;22.60;62.70;;;;;;5062362;28;20032;-37
2021/08/24 02:40:12;;;;;;;1.40;1.30;;;22.60;63.30;;;;;;5048982;28;20088;-37
2021/08/24 02:42:53;;;;;;;1.85;1.50;;;22.60;63.50;;;;;;5063098;28;20082;-37
2021/08/24 02:45:32;;;;;;;1.58;1.35;;;22.70;63.70;;;;;;5056163;28;20091;-36
2021/08/24 02:48:00;;;;;;;1.70;1.52;;;22.70;63.50;;;;;;5046459;28;20056;-37
2021/08/24 02:50:26;;;;;;;1.20;1.10;;;22.70;63.80;;;;;;5036164;28;20032;-37
2021/08/24 02:52:53;;;;;;;1.88;1.25;;;22.70;63.60;;;;;;5047872;28;20047;-36
2021/08/24 02:55:20;;;;;;;;;;;22.70;63.70;;;;;;5082903;28;20047;-36
2021/08/24 02:57:46;;;;;;;2.20;1.48;;;22.70;63.70;;;;;;5082420;28;19919;-37
2021/08/24 03:00:12;;;;;;;1.60;1.33;;;22.80;63.60;;;;;;5081048;28;20059;-37
2021/08/24 03:02:38;;;;;;;1.67;1.52;;;22.80;63.60;;;;;;5082510;28;20524;-37
2021/08/24 03:05:05;;;;;;;2.08;1.52;;;22.80;63.70;;;;;;5081327;28;20100;-36
2021/08/24 03:07:31;;;;;;;2.33;1.40;;;22.80;63.60;;;;;;5076655;28;20050;-37
2021/08/24 03:10:03;;;;;;;1.38;1.27;;;22.80;63.40;;;;;;5047073;28;20039;-37
2021/08/24 03:12:47;;;;;;;1.98;1.40;;;22.80;63.50;;;;;;5044986;28;20060;-37
2021/08/24 03:15:36;;;;;;;1.35;1.25;;;22.90;63.50;;;;;;5080447;28;20037;-36
2021/08/24 03:18:13;;;;;;;1.50;1.40;;;22.90;63.60;;;;;;5029946;28;20059;-37
2021/08/24 03:20:42;;;;;;;3.50;1.70;;;22.90;63.60;;;;;;5062659;28;20017;-36
2021/08/24 03:23:09;;;;;;;1.67;1.58;;;22.90;63.60;;;;;;5047286;28;20024;-37
2021/08/24 03:25:35;;;;;;;1.70;1.60;;;22.90;63.60;;;;;;5063990;28;20040;-37
2021/08/24 03:28:01;;;;;;;1.77;1.67;;;23.00;63.70;;;;;;5082270;28;20025;-37
2021/08/24 03:30:28;;;;;;;1.48;1.38;;;23.00;63.80;;;;;;5064092;28;20036;-36
2021/08/24 03:32:54;;;;;;;1.73;1.60;;;23.00;63.80;;;;;;5082326;28;20520;-37
2021/08/24 03:35:21;;;;;;;2.47;1.60;;;23.00;63.70;;;;;;5063674;28;20033;-37
2021/08/24 03:37:47;;;;;;;1.70;1.60;;;23.00;63.80;;;;;;5082197;28;20036;-37
2021/08/24 03:40:14;;;;;;;1.93;1.73;;;23.00;63.80;;;;;;5081923;28;20040;-37
2021/08/24 03:42:40;;;;;;;2.08;1.50;;;23.10;63.80;;;;;;5064042;28;20032;-37
2021/08/24 03:45:07;;;;;;;2.05;1.67;;;23.10;63.90;;;;;;5081416;28;20028;-37
2021/08/24 03:47:33;;;;;;;2.00;1.50;;;23.10;63.80;;;;;;5077347;28;20033;-37
2021/08/24 03:49:59;;;;;;;1.92;1.73;;;23.10;63.70;;;;;;5068242;28;20063;-36
2021/08/24 03:52:26;;;;;;;1.67;1.58;;;23.10;63.70;;;;;;5082854;28;20506;-37
2021/08/24 03:54:52;;;;;;;1.80;1.63;;;23.10;63.60;;;;;;5083150;28;20052;-37
2021/08/24 03:57:18;;;;;;;2.13;1.83;;;23.10;63.70;;;;;;5084678;28;20151;-35
2021/08/24 03:59:44;;;;;;;1.63;1.52;;;23.10;63.80;;;;;;5085453;28;20024;-36
2021/08/24 04:02:10;;;;;;;1.70;1.60;;;23.10;63.70;;;;;;5085703;28;20036;-34
2021/08/24 04:04:36;;;;;;;1.92;1.63;;;23.10;63.70;;;;;;5085804;28;20082;-35
2021/08/24 04:07:03;;;;;;;2.00;1.60;;;23.10;63.70;;;;;;5085852;28;20032;-35
2021/08/24 04:09:29;;;;;;;1.70;1.60;;;23.20;63.80;;;;;;5068579;28;20028;-35
2021/08/24 04:11:55;;;;;;;2.65;1.70;;;23.20;63.80;;;;;;5066111;28;20095;-35
2021/08/24 04:14:21;;;;;;;1.98;1.80;;;23.20;63.80;;;;;;5081506;28;20028;-35
2021/08/24 04:16:48;;;;;;;1.80;1.60;;;23.20;63.90;;;;;;5085131;28;20040;-35
2021/08/24 04:19:14;;;;;;;2.03;1.57;;;23.20;64.50;;;;;;5085898;28;20028;-35
2021/08/24 04:21:41;;;;;;;1.50;1.40;;;23.20;63.80;;;;;;5085787;28;20269;-35
2021/08/24 04:24:07;;;;;;;1.85;1.70;;;23.20;63.70;;;;;;5051018;28;20033;-35
2021/08/24 04:26:33;;;;;;;2.03;1.73;;;23.20;63.60;;;;;;5085106;28;20033;-35
2021/08/24 04:28:59;;;;;;;1.58;1.40;;;23.30;63.60;;;;;;5085082;28;20279;-36
2021/08/24 04:31:26;;;;;;;4.28;1.40;;;23.20;63.40;;;;;;5085197;28;20055;-35
2021/08/24 04:33:52;;;;;;;1.65;1.55;;;23.30;63.60;;;;;;5085135;28;20063;-35
2021/08/24 04:36:18;;;;;;;1.58;1.48;;;23.30;63.50;;;;;;5085138;28;20103;-35
2021/08/24 04:38:44;;;;;;;2.45;2.00;;;23.30;63.40;;;;;;5085013;28;20032;-35
2021/08/24 04:41:10;;;;;;;1.60;1.50;;;23.30;63.30;;;;;;5084908;28;20036;-36
2021/08/24 04:43:37;;;;;;;2.42;1.70;;;23.30;63.30;;;;;;5085016;28;20036;-35
2021/08/24 04:46:03;;;;;;;2.08;1.88;;;23.30;63.40;;;;;;5085089;28;20666;-35
2021/08/24 04:48:29;;;;;;;1.70;1.60;;;23.30;63.50;;;;;;5085093;28;20024;-35
2021/08/24 04:50:55;;;;;;;2.70;1.70;;;23.30;63.60;;;;;;5085224;28;20397;-37
2021/08/24 04:53:22;;;;;;;1.58;1.48;;;23.30;63.60;;;;;;5066547;28;20048;-35
2021/08/24 04:55:49;;;;;;;2.15;1.70;;;23.30;63.50;;;;;;5085236;28;20111;-35
2021/08/24 04:58:15;;;;;;;2.15;1.98;;;23.30;63.50;;;;;;5085003;28;20031;-35
2021/08/24 05:00:41;;;;;;;1.90;1.80;;;23.30;63.60;;;;;;5084029;28;20060;-35
2021/08/24 05:03:07;;;;;;;1.63;1.52;;;23.30;63.60;;;;;;5083622;28;20035;-35
2021/08/24 05:05:33;;;;;;;1.98;1.77;;;23.30;63.50;;;;;;5067140;28;20025;-35
2021/08/24 05:07:59;;;;;;;2.92;1.73;;;23.30;63.50;;;;;;5064543;28;20051;-35
2021/08/24 05:10:25;;;;;;;1.70;1.50;;;23.40;63.50;;;;;;5077701;28;20028;-35
2021/08/24 05:12:52;;;;;;;1.90;1.70;;;23.30;63.30;;;;;;5084815;28;20040;-35
2021/08/24 05:15:18;;;;;;;1.90;1.70;;;23.40;63.30;;;;;;5084448;28;20041;-35
2021/08/24 05:17:48;;;;;;;2.15;1.95;;;23.40;63.30;;;;;;5084269;28;20024;-35
2021/08/24 05:20:14;;;;;;;1.80;1.60;;;23.40;63.20;;;;;;5070949;28;20060;-35
2021/08/24 05:22:42;;;;;;;1.70;1.50;;;23.40;63.30;;;;;;5064486;28;20035;-35
2021/08/24 05:25:09;;;;;;;1.75;1.65;;;23.40;63.30;;;;;;5065815;28;20037;-35
2021/08/24 05:27:35;;;;;;;;;;;23.40;63.40;;;;;;5066815;28;20083;-35
2021/08/24 05:30:06;;;;;;;3.47;1.83;;;23.40;63.30;;;;;;5084389;28;19904;-35
2021/08/24 05:32:32;;;;;;;2.20;2.00;;;23.40;63.40;;;;;;5084196;28;20036;-35
2021/08/24 05:34:59;;;;;;;2.47;2.22;;;23.40;63.40;;;;;;5084279;28;20131;-35
2021/08/24 05:37:25;;;;;;;2.20;1.90;;;23.40;63.40;;;;;;5084161;28;20510;-35
2021/08/24 05:39:51;;;;;;;1.85;1.60;;;23.40;63.40;;;;;;5084261;28;20032;-35
2021/08/24 05:42:17;;;;;;;1.48;1.38;;;23.40;64.20;;;;;;5084404;28;20119;-35
2021/08/24 05:44:44;;;;;;;2.00;1.80;;;23.40;63.40;;;;;;5084126;28;20033;-34
2021/08/24 05:47:11;;;;;;;1.92;1.75;;;23.40;63.30;;;;;;5065945;28;20025;-34
2021/08/24 05:49:37;;;;;;;2.28;2.00;;;23.40;63.20;;;;;;5076580;28;20043;-34
2021/08/24 05:52:03;;;;;;;1.90;1.80;;;23.40;63.20;;;;;;5065872;28;20045;-35
2021/08/24 05:54:29;;;;;;;1.40;1.30;;;23.40;63.20;;;;;;5083528;28;20040;-35
2021/08/24 05:56:56;;;;;;;2.13;1.92;;;23.40;63.20;;;;;;5068392;28;20036;-35
2021/08/24 05:59:22;;;;;;;1.75;1.65;;;23.40;63.20;;;;;;5063970;28;20024;-35
2021/08/24 06:01:48;;;;;;;1.90;1.70;;;23.40;63.20;;;;;;5077808;28;20043;-35
2021/08/24 06:04:14;;;;;;;1.75;1.65;;;23.40;63.20;;;;;;5083489;28;20035;-34
2021/08/24 06:06:41;;;;;;;2.15;1.85;;;23.40;63.10;;;;;;5083758;28;20028;-35
2021/08/24 06:09:11;;;;;;;1.73;1.63;;;23.40;63.20;;;;;;5069952;28;20052;-35
2021/08/24 06:11:38;;;;;;;1.80;1.67;;;23.50;63.30;;;;;;5062999;28;20097;-35
2021/08/24 06:14:06;;;;;;;1.95;1.75;;;23.50;63.10;;;;;;5065873;28;20037;-35
2021/08/24 06:16:32;;;;;;;;;;;23.50;63.00;;;;;;5071710;28;20021;-35
2021/08/24 06:18:58;;;;;;;1.98;1.77;;;23.50;63.00;;;;;;5069269;28;20039;-34
2021/08/24 06:21:24;;;;;;;1.77;1.67;;;23.50;63.00;;;;;;5083607;28;20035;-35
2021/08/24 06:23:50;;;;;;;2.00;1.80;;;23.50;63.00;;;;;;5083368;28;20055;-35
2021/08/24 06:26:17;;;;;;;1.75;1.63;;;23.50;63.00;;;;;;5083465;28;20048;-35
2021/08/24 06:28:43;;;;;;;1.98;1.83;;;23.50;62.90;;;;;;5083591;28;20024;-35
2021/08/24 06:31:12;;;;;;;2.10;1.90;;;23.50;62.90;;;;;;5083151;28;20036;-35
2021/08/24 06:33:39;;;;;;;1.75;1.65;;;23.50;63.00;;;;;;5048838;28;20032;-35
2021/08/24 06:36:05;;;;;;;2.00;1.80;;;23.50;63.00;;;;;;5048764;28;20041;-35
2021/08/24 06:38:31;;;;;;;2.20;2.00;;;23.50;63.00;;;;;;5083397;28;20482;-35
2021/08/24 06:40:58;;;;;;;2.40;2.20;;;23.50;63.00;;;;;;5083394;28;20354;-35
2021/08/24 06:43:24;;;;;;;1.55;1.45;;;23.50;63.00;;;;;;5081818;28;20033;-35
2021/08/24 06:45:51;;;;;;;2.40;2.20;;;23.50;63.00;;;;;;5083112;28;20107;-35
2021/08/24 06:48:17;;;;;;;2.28;2.08;;;23.50;63.00;;;;;;5082864;28;20017;-35
2021/08/24 06:50:43;;;;;;;2.22;1.83;;;23.50;63.00;;;;;;5067224;28;20071;-35
2021/08/24 06:53:10;;;;;;;1.92;1.73;;;23.50;62.90;;;;;;5082619;28;20055;-35
2021/08/24 06:55:38;;;;;;;1.80;1.70;;;23.50;62.90;;;;;;5083091;28;20044;-35
2021/08/24 06:58:05;;;;;;;1.83;1.73;;;23.50;62.90;;;;;;5083070;28;20444;-35
2021/08/24 07:00:31;;;;;;;;;;;23.50;62.90;;;;;;5083191;28;20035;-35
2021/08/24 07:02:58;;;;;;;1.88;1.67;;;23.50;62.90;;;;;;5082523;28;19916;-35
2021/08/24 07:05:25;;;;;;;1.85;1.73;;;23.50;62.80;;;;;;5082546;28;20024;-35
2021/08/24 07:07:52;;;;;;;2.03;1.83;;;23.50;62.90;;;;;;5081463;28;20040;-35
2021/08/24 07:10:18;;;;;;;2.53;1.60;;;23.50;62.90;;;;;;5082835;28;20041;-35
2021/08/24 07:12:44;;;;;;;2.03;1.83;;;23.50;62.90;;;;;;5079726;28;20055;-35
2021/08/24 07:15:12;;;;;;;1.67;1.57;;;23.50;63.00;;;;;;5070616;28;20051;-35
2021/08/24 07:17:38;;;;;;;1.92;1.77;;;23.50;63.00;;;;;;5082608;28;20325;-35
2021/08/24 07:20:09;;;;;;;2.03;1.90;;;23.50;63.00;;;;;;5067647;28;20051;-35
2021/08/24 07:22:36;;;;;;;2.28;2.08;;;23.50;63.30;;;;;;5062402;28;20048;-35
2021/08/24 07:25:03;;;;;;;1.75;1.65;;;23.50;63.00;;;;;;5062348;28;20025;-35
2021/08/24 07:27:29;;;;;;;1.90;1.80;;;23.40;62.90;;;;;;5062455;28;20025;-35
2021/08/24 07:29:55;;;;;;;1.88;1.77;;;23.50;63.00;;;;;;5070002;28;20024;-35
2021/08/24 07:32:21;;;;;;;2.00;1.90;;;23.50;62.90;;;;;;5082154;28;20080;-37
2021/08/24 07:34:47;;;;;;;2.20;2.00;;;23.50;62.90;;;;;;5082357;28;20102;-35
2021/08/24 07:37:14;;;;;;;2.03;1.83;;;23.50;62.90;;;;;;5082718;28;20071;-35
2021/08/24 07:39:40;;;;;;;2.72;2.00;;;23.50;62.90;;;;;;5082253;28;20033;-35
2021/08/24 07:42:06;;;;;;;2.10;1.90;;;23.50;62.90;;;;;;5082606;28;20032;-35
2021/08/24 07:44:33;;;;;;;1.60;1.50;;;23.50;63.00;;;;;;5082236;28;20565;-35
2021/08/24 07:47:06;;;;;;;1.77;1.67;;;23.50;63.00;;;;;;5065997;28;20065;-35
2021/08/24 07:49:34;;;;;;;2.55;1.77;;;23.50;63.10;;;;;;5050201;28;20037;-35
2021/08/24 07:52:02;;;;;;;2.33;2.00;;;23.50;63.10;;;;;;5069384;28;20036;-35
2021/08/24 07:54:28;;;;;;;2.17;1.98;;;23.50;63.20;;;;;;5081682;28;20041;-35
2021/08/24 07:56:54;;;;;;;2.20;2.00;;;23.50;63.20;;;;;;5082459;28;20036;-35
2021/08/24 07:59:20;;;;;;;1.90;1.70;;;23.50;63.20;;;;;;5081997;28;20041;-35
2021/08/24 08:01:47;;;;;;;1.90;1.70;;;23.50;63.20;;;;;;5082178;28;20032;-35
2021/08/24 08:04:13;;;;;;;2.15;1.95;;;23.50;63.20;;;;;;5081885;28;20504;-35
2021/08/24 08:06:39;;;;;;;2.17;2.03;;;23.50;63.20;;;;;;5082254;28;20029;-35
2021/08/24 08:09:06;;;;;;;2.08;1.88;;;23.50;63.20;;;;;;5082177;28;20036;-35
2021/08/24 08:11:36;;;;;;;2.28;2.08;;;23.50;63.20;;;;;;5082138;28;20084;-35
2021/08/24 08:14:02;;;;;;;2.30;1.80;;;23.50;63.10;;;;;;5081689;28;20042;-35
2021/08/24 08:16:28;;;;;;;2.00;1.90;;;23.50;63.10;;;;;;5070233;28;20033;-35
2021/08/24 08:18:54;;;;;;;1.80;1.70;;;23.50;63.20;;;;;;5066460;28;20021;-35
2021/08/24 08:21:20;;;;;;;2.67;1.90;;;23.50;63.30;;;;;;5081976;28;20066;-35
2021/08/24 08:23:46;;;;;;;2.10;1.90;;;23.50;63.40;;;;;;5082063;28;20017;-35
2021/08/24 08:26:13;;;;;;;2.00;1.85;;;23.50;63.30;;;;;;5081852;28;20058;-35
2021/08/24 08:28:39;;;;;;;2.97;1.88;;;23.50;63.40;;;;;;5081550;28;20028;-35
2021/08/24 08:31:05;;;;;;;2.10;1.90;;;23.50;63.40;;;;;;5081898;28;20119;-35
2021/08/24 08:33:33;;;;;;;2.40;2.20;;;23.50;63.40;;;;;;5047245;28;20063;-35
2021/08/24 08:35:59;;;;;;;2.28;2.08;;;23.50;63.40;;;;;;5084255;28;20063;-35
2021/08/24 08:38:25;;;;;;;2.13;1.85;;;23.50;63.40;;;;;;5085521;28;20024;-35
2021/08/24 08:41:12;;;;;;;2.00;1.90;;;23.50;63.40;;;;;;5067707;28;20024;-35
2021/08/24 08:43:58;;;;;;;2.17;1.98;;;23.50;63.40;;;;;;5085378;28;20029;-35
2021/08/24 08:46:24;;;;;;;1.95;1.75;;;23.50;63.40;;;;;;5085245;28;20047;-35
2021/08/24 08:48:55;;;;;;;2.97;2.03;;;23.50;63.40;;;;;;5085075;28;20029;-35
2021/08/24 08:51:51;;;;;;;2.58;2.38;;;23.50;63.40;;;;;;5067243;28;20500;-35
2021/08/24 08:54:26;;;;;;;2.00;1.90;;;23.50;63.40;;;;;;5068387;28;20040;-35
2021/08/24 08:57:02;;;;;;;2.45;2.00;;;23.50;63.50;;;;;;5085195;28;20032;-35
2021/08/24 08:59:37;;;;;;;1.88;1.77;;;23.50;63.50;;;;;;5085221;28;20493;-35
2021/08/24 09:02:22;;;;;;;2.08;1.88;;;23.50;63.60;;;;;;5084963;28;20051;-35
2021/08/24 09:04:48;;;;;;;2.58;2.35;;;23.50;63.60;;;;;;5084992;28;20021;-35
2021/08/24 09:07:28;;;;;;;2.42;1.83;;;23.50;63.60;;;;;;5050738;28;20056;-35
2021/08/24 09:09:54;;;;;;;2.20;2.00;;;23.50;63.60;;;;;;5085049;28;20024;-35
2021/08/24 09:12:20;;;;;;;2.00;1.83;;;23.50;63.60;;;;;;5050555;28;20032;-35
2021/08/24 09:14:52;;;;;;;2.00;1.80;;;23.50;63.60;;;;;;5080355;28;20032;-36
2021/08/24 09:17:38;;;;;;;2.28;2.08;;;23.50;63.60;;;;;;5051352;28;20124;-35
2021/08/24 09:20:20;;;;;;;2.40;2.20;;;23.40;63.60;;;;;;5061631;28;20032;-35
2021/08/24 09:22:47;;;;;;;1.92;1.83;;;23.40;63.60;;;;;;5068255;28;20020;-35
2021/08/24 09:25:37;;;;;;;2.05;1.90;;;23.50;63.60;;;;;;5081344;28;20020;-34
2021/08/24 09:28:11;;;;;;;2.00;1.90;;;23.50;63.60;;;;;;5060794;28;20017;-35
2021/08/24 09:30:38;;;;;;;1.92;1.83;;;23.40;63.60;;;;;;5051922;28;20281;-35
2021/08/24 09:33:05;;;;;;;2.35;2.15;;;23.40;63.70;;;;;;5049925;28;20126;-36
2021/08/24 09:35:33;;;;;;;2.38;2.00;;;23.40;63.70;;;;;;5047415;28;20036;-34
2021/08/24 09:38:02;;;;;;;2.28;2.08;;;23.40;63.80;;;;;;5077628;28;20051;-34
2021/08/24 09:40:35;;;;;;;1.85;1.75;;;23.40;63.80;;;;;;5066025;28;20035;-35
2021/08/24 09:43:18;;;;;;;2.30;2.10;;;23.50;63.90;;;;;;5064295;28;20036;-35
2021/08/24 09:45:44;;;;;;;2.50;2.30;;;23.40;63.80;;;;;;5077251;28;20508;-35
2021/08/24 09:48:11;;;;;;;2.03;1.85;;;23.40;63.90;;;;;;5063059;28;20017;-35
2021/08/24 09:50:42;;;;;;;2.40;2.15;;;23.40;63.80;;;;;;5049126;28;20040;-35
2021/08/24 09:53:34;;;;;;;2.22;2.03;;;23.40;63.80;;;;;;5083157;28;20048;-35
2021/08/24 09:56:05;;;;;;;2.35;2.15;;;23.40;63.80;;;;;;5068010;28;20061;-35
2021/08/24 09:58:37;;;;;;;2.35;2.15;;;23.40;63.80;;;;;;5049179;28;20473;-35
2021/08/24 10:01:05;;;;;;;2.20;2.00;;;23.40;63.80;;;;;;5083017;28;20665;-35
2021/08/24 10:03:41;;;;;;;2.10;1.90;;;23.40;63.80;;;;;;5083232;28;20024;-35
2021/08/24 10:06:23;;;;;;;1.88;1.77;;;23.40;63.90;;;;;;5066385;28;20059;-35
2021/08/24 10:08:56;;;;;;;2.63;2.15;;;23.40;63.90;;;;;;5082893;28;20029;-35
2021/08/24 10:11:27;;;;;;;2.25;2.05;;;23.40;63.90;;;;;;5050275;28;20024;-35
2021/08/24 10:13:53;;;;;;;3.05;2.10;;;23.40;64.00;;;;;;5065573;28;20039;-35
2021/08/24 10:16:25;;;;;;;2.03;1.88;;;23.40;64.00;;;;;;5062190;28;20039;-35
2021/08/24 10:19:04;;;;;;;2.00;1.90;;;23.40;64.00;;;;;;5060201;28;20033;-35
2021/08/24 10:21:44;;;;;;;2.72;2.22;;;23.40;64.10;;;;;;5041544;28;20051;-35
2021/08/24 10:24:12;;;;;;;2.60;2.40;;;23.40;64.10;;;;;;5065231;28;20043;-35
2021/08/24 10:26:39;;;;;;;2.55;2.00;;;23.40;64.00;;;;;;5082441;28;20041;-35
2021/08/24 10:29:10;;;;;;;2.40;2.05;;;23.40;64.10;;;;;;5047889;28;20028;-35
2021/08/24 10:31:56;;;;;;;2.47;2.28;;;23.40;64.10;;;;;;5063341;28;20036;-35
2021/08/24 10:34:34;;;;;;;2.30;2.10;;;23.40;64.10;;;;;;5074458;28;20092;-35
2021/08/24 10:37:26;;;;;;;2.22;2.03;;;23.40;64.20;;;;;;5057204;28;20029;-35
2021/08/24 10:39:52;;;;;;;2.53;2.03;;;23.40;64.20;;;;;;5073982;28;20122;-35
2021/08/24 10:42:27;;;;;;;2.38;2.17;;;23.40;64.20;;;;;;5073009;28;20041;-34
2021/08/24 10:45:01;;;;;;;2.00;1.90;;;23.40;64.20;;;;;;5051838;28;20043;-35
2021/08/24 10:47:49;;;;;;;2.20;2.08;;;23.40;64.20;;;;;;5057392;28;20554;-35
2021/08/24 10:50:23;;;;;;;2.50;2.20;;;23.40;64.20;;;;;;5057844;28;20028;-35
2021/08/24 10:53:13;;;;;;;2.58;2.38;;;23.40;64.30;;;;;;5031401;28;20053;-35
2021/08/24 10:55:45;;;;;;;2.80;2.20;;;23.40;64.30;;;;;;5045464;28;20032;-37
2021/08/24 10:58:29;;;;;;;1.92;1.70;;;23.40;64.40;;;;;;5057328;28;20441;-35
2021/08/24 11:01:03;;;;;;;2.13;1.92;;;23.40;64.40;;;;;;5046283;28;20032;-35
2021/08/24 11:04:07;;;;;;;2.75;2.10;;;23.40;64.40;;;;;;5053113;28;20032;-35
2021/08/24 11:06:56;;;;;;;2.30;2.10;;;23.40;64.50;;;;;;5070660;28;20109;-35
2021/08/24 11:09:29;;;;;;;2.30;2.10;;;23.40;64.40;;;;;;5076685;28;20068;-35
2021/08/24 11:12:19;;;;;;;2.30;2.10;;;23.40;64.30;;;;;;5056155;28;20028;-35
2021/08/24 11:14:56;;;;;;;2.60;2.22;;;23.40;64.30;;;;;;5073835;28;20138;-34
2021/08/24 11:17:40;;;;;;;2.25;2.05;;;23.40;64.30;;;;;;5079210;28;20135;-35
2021/08/24 11:20:46;;;;;;;2.40;2.20;;;23.40;64.30;;;;;;5075338;28;20090;-35
2021/08/24 11:23:23;;;;;;;3.42;2.38;;;23.40;64.40;;;;;;5041386;28;20033;-35
2021/08/24 11:25:50;;;;;;;;;;;23.40;64.40;;;;;;5070014;28;20108;-35
2021/08/24 11:28:32;;;;;;;2.88;2.10;;;23.40;64.50;;;;;;5051213;28;19916;-35
2021/08/24 11:31:07;;;;;;;2.28;2.08;;;23.40;64.50;;;;;;5073054;28;20029;-34
2021/08/24 11:33:50;;;;;;;2.42;2.22;;;23.40;64.60;;;;;;5061324;28;20036;-35
2021/08/24 11:36:29;;;;;;;2.42;2.22;;;23.40;64.60;;;;;;5043963;28;20040;-34
2021/08/24 11:39:01;;;;;;;2.30;2.10;;;23.40;64.50;;;;;;5045073;28;20048;-34
2021/08/24 11:41:27;;;;;;;3.40;2.40;;;23.30;64.60;;;;;;5039084;28;20058;-33
2021/08/24 11:44:08;;;;;;;2.47;2.28;;;23.40;64.60;;;;;;5036999;28;20029;-35
2021/08/24 11:46:54;;;;;;;3.08;2.40;;;23.30;64.50;;;;;;5056375;28;20037;-36
2021/08/24 11:49:29;;;;;;;2.30;2.10;;;23.40;64.60;;;;;;5075503;28;20024;-35
2021/08/24 11:52:13;;;;;;;2.28;2.08;;;23.30;64.60;;;;;;5058161;28;20504;-35
2021/08/24 11:55:06;;;;;;;2.45;2.25;;;23.40;64.50;;;;;;5070516;28;20037;-35
2021/08/24 11:57:49;;;;;;;2.40;2.20;;;23.30;64.50;;;;;;5010614;28;20080;-35
2021/08/24 12:00:15;;;;;;;2.40;2.20;;;23.30;64.50;;;;;;5005846;28;20037;-35
2021/08/24 12:02:43;;;;;;;3.00;2.15;;;23.30;64.50;;;;;;5012970;28;20766;-34
2021/08/24 12:05:23;;;;;;;2.90;2.33;;;23.30;64.60;;;;;;4992792;28;20034;-35
2021/08/24 12:07:56;;;;;;;2.80;2.10;;;23.30;64.60;;;;;;5010327;28;20038;-34
2021/08/24 12:10:52;;;;;;;2.78;2.40;;;23.30;64.60;;;;;;4997944;28;20362;-35
2021/08/24 12:13:26;;;;;;;2.17;1.98;;;23.30;64.70;;;;;;5024981;28;20080;-35
2021/08/24 12:16:07;;;;;;;2.40;2.20;;;23.30;64.70;;;;;;4996364;28;20082;-35
2021/08/24 12:18:33;;;;;;;2.45;2.25;;;23.30;64.80;;;;;;5015146;28;20053;-35
2021/08/24 12:21:22;;;;;;;2.92;2.15;;;23.30;64.70;;;;;;5032640;28;20041;-35
2021/08/24 12:23:48;;;;;;;2.65;2.45;;;23.30;64.70;;;;;;5021125;28;20034;-35
2021/08/24 12:26:34;;;;;;;2.20;2.00;;;23.30;64.60;;;;;;5002740;28;20035;-34
2021/08/24 12:29:31;;;;;;;2.40;2.17;;;23.30;64.60;;;;;;5028222;28;20056;-35
2021/08/24 12:31:57;;;;;;;3.67;2.15;;;23.30;64.60;;;;;;5006269;28;20049;-34
2021/08/24 12:34:35;;;;;;;2.30;2.08;;;23.30;64.60;;;;;;5038766;28;20041;-35
2021/08/24 12:37:30;;;;;;;2.28;2.08;;;23.30;64.60;;;;;;5064863;28;20033;-35
2021/08/24 12:39:57;;;;;;;2.33;2.13;;;23.30;64.60;;;;;;5082702;28;20025;-35
2021/08/24 12:42:29;;;;;;;2.50;2.30;;;23.30;64.60;;;;;;5067384;28;20463;-35
2021/08/24 12:45:01;;;;;;;2.40;2.20;;;23.30;65.40;;;;;;5085189;28;20088;-35
2021/08/24 12:47:35;;;;;;;2.38;2.17;;;23.30;64.70;;;;;;5085352;28;20089;-35
2021/08/24 12:50:10;;;;;;;2.40;2.20;;;23.30;64.80;;;;;;5084948;28;20036;-35
2021/08/24 12:52:36;;;;;;;2.58;2.25;;;23.40;64.90;;;;;;5084249;28;20044;-35
2021/08/24 12:55:27;;;;;;;2.40;2.20;;;23.40;64.90;;;;;;5084384;28;20490;-35
2021/08/24 12:58:03;;;;;;;2.90;2.22;;;23.40;64.80;;;;;;5069402;28;20620;-35
2021/08/24 13:00:37;;;;;;;2.28;2.08;;;23.40;64.80;;;;;;5066416;28;20028;-35
2021/08/24 13:03:18;;;;;;;1.95;1.75;;;23.40;64.70;;;;;;5066824;28;20039;-35
2021/08/24 13:05:44;;;;;;;3.22;2.20;;;23.40;64.70;;;;;;5067885;28;20040;-35
2021/08/24 13:08:30;;;;;;;2.53;2.33;;;23.40;64.70;;;;;;5050046;28;20035;-35
2021/08/24 13:11:27;;;;;;;2.25;2.05;;;23.40;64.70;;;;;;5067017;28;20020;-35